Smithton, Australia
Current Conditions -  °F | °C
As of 11:30 PM on Wednesday 26 Nov 2014 (Local Time) from YMLT Reporting Station
Clear Clear  
Wind Chill: 42°   Ceiling: Unl
Heat Index: 46°   Visibility: 6mi
Dew Point: 36°   Wind: 8mph
Humidity: 66%   Direction: 160°SSE
Pressure: 30.15"   Gusts: NA
Location:  40.84°S, 145.12°E
Report Text: YMLT 261230Z AUTO 16007KT 9999 // NCD 08/02 Q1021
Loading
Personal Weather Stations






























Interactive Weather Map New forecast layout! Learn more

10-Day Weather Forecast

Advertisements
Track Severe Weather on mobile